createdAt,value
2023-01-17T00:00:34.890Z,2.99
2023-01-17T00:03:01.590Z,3.00
2023-01-17T00:05:46.524Z,3.02
2023-01-17T00:08:31.888Z,2.98
2023-01-17T00:10:58.785Z,2.99
2023-01-17T00:13:25.358Z,3.00
2023-01-17T00:15:52.150Z,2.99
2023-01-17T00:18:18.829Z,2.97
2023-01-17T00:21:04.172Z,2.96
2023-01-17T00:23:49.208Z,2.96
2023-01-17T00:26:18.642Z,2.95
2023-01-17T00:28:46.016Z,2.94
2023-01-17T00:31:15.866Z,2.94
2023-01-17T00:33:42.642Z,2.94
2023-01-17T00:36:10.752Z,2.93
2023-01-17T00:38:38.951Z,2.92
2023-01-17T00:41:13.365Z,2.84
2023-01-17T00:43:58.951Z,2.79
2023-01-17T00:46:44.605Z,2.69
2023-01-17T00:49:29.891Z,2.51
2023-01-17T00:52:15.019Z,2.37
2023-01-17T00:55:00.228Z,2.38
2023-01-17T00:57:45.248Z,2.28
2023-01-17T01:00:30.977Z,2.18
2023-01-17T01:03:17.166Z,2.12
2023-01-17T01:06:02.251Z,2.05
2023-01-17T01:08:48.587Z,2.01
2023-01-17T01:11:37.124Z,1.98
2023-01-17T01:14:22.875Z,1.99
2023-01-17T01:17:07.982Z,1.97
2023-01-17T01:19:52.951Z,1.97
2023-01-17T01:22:38.041Z,2.00
2023-01-17T01:25:23.472Z,2.02
2023-01-17T01:28:08.484Z,2.04
2023-01-17T01:30:53.797Z,2.05
2023-01-17T01:33:20.330Z,2.05
2023-01-17T01:35:52.071Z,2.06
2023-01-17T01:38:20.637Z,2.10
2023-01-17T01:40:52.174Z,2.12
2023-01-17T01:43:21.788Z,2.09
2023-01-17T01:45:57.250Z,2.06
2023-01-17T01:48:31.990Z,2.04
2023-01-17T01:50:58.874Z,2.01
2023-01-17T01:53:26.113Z,1.99
2023-01-17T01:55:53.292Z,1.97
2023-01-17T01:58:25.393Z,1.94
2023-01-17T02:00:52.163Z,1.90
2023-01-17T02:03:27.564Z,1.86
2023-01-17T02:05:54.239Z,1.81
2023-01-17T02:08:24.112Z,1.80
2023-01-17T02:10:51.467Z,1.80
2023-01-17T02:13:20.216Z,1.81
2023-01-17T02:16:11.378Z,1.80
2023-01-17T02:19:22.801Z,1.80
2023-01-17T02:22:37.820Z,1.78
2023-01-17T02:25:13.395Z,1.76
2023-01-17T02:27:53.737Z,1.77
2023-01-17T02:30:42.531Z,1.75
2023-01-17T02:33:29.022Z,1.72
2023-01-17T02:36:04.615Z,1.70
2023-01-17T02:38:59.476Z,1.70
2023-01-17T02:41:34.337Z,1.69
2023-01-17T02:44:02.186Z,1.69
2023-01-17T02:46:28.811Z,1.68
2023-01-17T02:48:56.355Z,1.69
2023-01-17T02:51:30.380Z,1.67
2023-01-17T02:54:06.016Z,1.68
2023-01-17T02:57:03.202Z,1.67
2023-01-17T02:59:38.805Z,1.65
2023-01-17T03:02:17.885Z,1.64
2023-01-17T03:05:06.293Z,1.65
2023-01-17T03:07:34.148Z,1.64
2023-01-17T03:10:04.973Z,1.63
2023-01-17T03:12:35.573Z,1.61
2023-01-17T03:15:02.365Z,1.61
2023-01-17T03:17:32.350Z,1.61
2023-01-17T03:19:59.026Z,1.59
2023-01-17T03:22:25.567Z,1.57
2023-01-17T03:24:52.156Z,1.55
2023-01-17T03:27:18.825Z,1.57
2023-01-17T03:29:45.496Z,1.55
2023-01-17T03:32:12.077Z,1.56
2023-01-17T03:34:38.588Z,1.54
2023-01-17T03:37:05.131Z,1.56
2023-01-17T03:39:31.716Z,1.57
2023-01-17T03:41:58.214Z,1.55
2023-01-17T03:44:24.784Z,1.55
2023-01-17T03:46:51.526Z,1.55
2023-01-17T03:49:19.307Z,1.52
2023-01-17T03:51:45.963Z,1.50
2023-01-17T03:54:12.577Z,1.49
2023-01-17T03:56:39.068Z,1.50
2023-01-17T03:59:05.574Z,1.49
2023-01-17T04:01:32.212Z,1.48
2023-01-17T04:03:58.883Z,1.47
2023-01-17T04:06:25.507Z,1.46
2023-01-17T04:08:52.172Z,1.47
2023-01-17T04:11:18.733Z,1.46
2023-01-17T04:13:45.321Z,1.44
2023-01-17T04:16:17.508Z,1.45
2023-01-17T04:18:44.863Z,1.41
2023-01-17T04:21:11.528Z,1.39
2023-01-17T04:23:38.026Z,1.33
2023-01-17T04:26:04.764Z,1.28
2023-01-17T04:28:31.863Z,1.27
2023-01-17T04:31:00.124Z,1.26
2023-01-17T04:33:26.767Z,1.25
2023-01-17T04:35:54.232Z,1.26
2023-01-17T04:38:21.085Z,1.27
2023-01-17T04:40:48.713Z,1.24
2023-01-17T04:43:16.152Z,1.24
2023-01-17T04:45:42.907Z,1.24
2023-01-17T04:48:12.790Z,1.24
2023-01-17T04:50:40.107Z,1.24
2023-01-17T04:53:07.124Z,1.25
2023-01-17T04:55:33.798Z,1.25
2023-01-17T04:58:00.379Z,1.25
2023-01-17T05:00:26.973Z,1.25
2023-01-17T05:02:53.626Z,1.24
2023-01-17T05:05:20.186Z,1.24
2023-01-17T05:07:54.049Z,1.25
2023-01-17T05:10:20.652Z,1.27
2023-01-17T05:12:55.637Z,1.24
2023-01-17T05:15:22.685Z,1.23
2023-01-17T05:17:50.919Z,1.24
2023-01-17T05:20:17.764Z,1.25
2023-01-17T05:22:44.351Z,1.23
2023-01-17T05:25:10.987Z,1.19
2023-01-17T05:27:37.594Z,1.19
2023-01-17T05:30:04.748Z,1.18
2023-01-17T05:32:31.329Z,1.15
2023-01-17T05:34:57.771Z,1.13
2023-01-17T05:37:24.345Z,1.08
2023-01-17T05:39:50.950Z,1.07
2023-01-17T05:42:17.539Z,1.07
2023-01-17T05:44:44.145Z,1.06
2023-01-17T05:47:10.874Z,1.01
2023-01-17T05:49:38.916Z,1.02
2023-01-17T05:52:05.653Z,1.00
2023-01-17T05:54:32.076Z,1.00
2023-01-17T05:56:58.666Z,0.99
2023-01-17T05:59:36.693Z,0.98
2023-01-17T06:02:04.133Z,0.96
2023-01-17T06:04:30.902Z,0.93
2023-01-17T06:06:57.693Z,0.92
2023-01-17T06:09:24.213Z,0.93
2023-01-17T06:11:50.741Z,0.91
2023-01-17T06:14:17.259Z,0.91
2023-01-17T06:16:43.867Z,0.86
2023-01-17T06:19:10.646Z,0.86
2023-01-17T06:21:37.393Z,0.82
2023-01-17T06:24:04.452Z,0.83
2023-01-17T06:26:31.059Z,0.85
2023-01-17T06:28:57.710Z,0.89
2023-01-17T06:31:24.423Z,0.91
2023-01-17T06:33:51.180Z,0.93
2023-01-17T06:36:17.727Z,0.96
2023-01-17T06:38:44.541Z,0.97
2023-01-17T06:41:11.096Z,1.00
2023-01-17T06:43:37.705Z,1.01
2023-01-17T06:46:04.275Z,1.03
2023-01-17T06:48:30.792Z,1.04
2023-01-17T06:50:58.078Z,1.03
2023-01-17T06:53:24.898Z,1.04
2023-01-17T06:55:52.546Z,1.02
2023-01-17T06:58:19.135Z,1.01
2023-01-17T07:00:45.915Z,0.98
2023-01-17T07:03:21.019Z,0.97
2023-01-17T07:05:48.987Z,0.96
2023-01-17T07:08:16.991Z,0.93
2023-01-17T07:10:45.134Z,0.92
2023-01-17T07:13:12.703Z,0.89
2023-01-17T07:15:40.052Z,0.90
2023-01-17T07:18:07.389Z,0.88
2023-01-17T07:20:33.982Z,0.87
2023-01-17T07:23:00.532Z,0.87
2023-01-17T07:25:27.913Z,0.84
2023-01-17T07:27:57.498Z,0.83
2023-01-17T07:30:24.925Z,0.79
2023-01-17T07:32:55.675Z,0.78
2023-01-17T07:35:23.515Z,0.80
2023-01-17T07:37:51.703Z,0.81
2023-01-17T07:40:20.219Z,0.85
2023-01-17T07:42:47.082Z,0.90
2023-01-17T07:45:15.638Z,0.94
2023-01-17T07:47:42.548Z,0.99
2023-01-17T07:50:09.761Z,1.02
2023-01-17T07:52:36.441Z,1.09
2023-01-17T07:55:03.076Z,1.12
2023-01-17T07:57:29.827Z,1.17
2023-01-17T07:59:56.479Z,1.23
2023-01-17T08:02:23.775Z,1.27
2023-01-17T08:04:50.253Z,1.32
2023-01-17T08:07:16.954Z,1.38
2023-01-17T08:09:44.239Z,1.44
2023-01-17T08:12:10.804Z,1.49
2023-01-17T08:14:37.305Z,1.52
2023-01-17T08:17:07.160Z,1.54
2023-01-17T08:19:33.799Z,1.58
2023-01-17T08:22:00.361Z,1.59
2023-01-17T08:24:27.120Z,1.61
2023-01-17T08:26:56.424Z,1.62
2023-01-17T08:29:23.734Z,1.66
2023-01-17T08:31:50.686Z,1.69
2023-01-17T08:34:17.302Z,1.71
2023-01-17T08:36:45.061Z,1.75
2023-01-17T08:39:14.516Z,1.76
2023-01-17T08:41:41.205Z,1.78
2023-01-17T08:44:07.751Z,1.80
2023-01-17T08:46:34.350Z,1.84
2023-01-17T08:49:02.805Z,1.90
2023-01-17T08:51:30.170Z,1.90
2023-01-17T08:53:56.927Z,1.95
2023-01-17T08:56:27.372Z,1.97
2023-01-17T08:58:54.102Z,1.97
2023-01-17T09:01:21.615Z,1.97
2023-01-17T09:03:52.014Z,1.94
2023-01-17T09:06:33.264Z,1.93
2023-01-17T09:08:59.769Z,1.90
2023-01-17T09:11:26.657Z,1.91
2023-01-17T09:13:55.923Z,1.94
2023-01-17T09:16:22.689Z,1.95
2023-01-17T09:18:49.661Z,1.95
2023-01-17T09:21:17.905Z,1.95
2023-01-17T09:23:45.120Z,1.95
2023-01-17T09:26:19.372Z,1.94
2023-01-17T09:28:46.355Z,1.96
2023-01-17T09:31:13.217Z,2.00
2023-01-17T09:33:42.655Z,2.01
2023-01-17T09:36:10.981Z,2.04
2023-01-17T09:38:38.167Z,2.06
2023-01-17T09:41:22.014Z,2.09
2023-01-17T09:44:02.605Z,2.12
2023-01-17T09:46:33.620Z,2.14
2023-01-17T09:49:07.940Z,2.17
2023-01-17T09:51:36.164Z,2.22
2023-01-17T09:54:02.907Z,2.25
2023-01-17T09:56:38.464Z,2.30
2023-01-17T09:59:35.634Z,2.35
2023-01-17T10:02:30.180Z,2.39
2023-01-17T10:05:19.390Z,2.41
2023-01-17T10:08:20.913Z,2.48
2023-01-17T10:11:08.914Z,2.49
2023-01-17T10:14:15.643Z,2.50
2023-01-17T10:16:54.874Z,2.52
2023-01-17T10:19:44.933Z,2.53
2023-01-17T10:22:23.519Z,2.58
2023-01-17T10:25:15.856Z,2.60
2023-01-17T10:27:59.225Z,2.61
2023-01-17T10:30:34.681Z,2.62
2023-01-17T10:33:12.700Z,2.69
2023-01-17T10:35:51.569Z,2.73
2023-01-17T10:38:19.507Z,2.74
2023-01-17T10:40:51.383Z,2.79
2023-01-17T10:43:44.209Z,2.84
2023-01-17T10:46:28.650Z,2.88
2023-01-17T10:48:57.172Z,2.93
2023-01-17T10:51:43.900Z,2.94
2023-01-17T10:54:29.332Z,3.00
2023-01-17T10:56:56.051Z,3.03
2023-01-17T10:59:31.319Z,3.08
2023-01-17T11:01:58.797Z,3.07
2023-01-17T11:04:36.892Z,3.09
2023-01-17T11:07:14.139Z,3.14
2023-01-17T11:09:43.953Z,3.16
2023-01-17T11:12:20.896Z,3.20
2023-01-17T11:15:05.617Z,3.14
2023-01-17T11:17:33.751Z,3.16
2023-01-17T11:20:16.984Z,3.17
2023-01-17T11:22:49.431Z,3.17
2023-01-17T11:25:22.373Z,3.20
2023-01-17T11:28:06.902Z,3.22
2023-01-17T11:30:34.112Z,3.25
2023-01-17T11:33:08.546Z,3.25
2023-01-17T11:35:37.416Z,3.24
2023-01-17T11:38:14.870Z,3.23
2023-01-17T11:40:42.461Z,3.20
2023-01-17T11:43:12.019Z,3.19
2023-01-17T11:45:40.065Z,3.20
2023-01-17T11:48:13.476Z,3.19
2023-01-17T11:50:41.826Z,3.23
2023-01-17T11:53:28.972Z,3.27
2023-01-17T11:56:05.808Z,3.24
2023-01-17T11:58:38.672Z,3.21
2023-01-17T12:01:37.189Z,3.25
2023-01-17T12:04:24.318Z,3.29
2023-01-17T12:06:57.940Z,3.31
2023-01-17T12:09:46.681Z,3.37
2023-01-17T12:12:50.952Z,3.40
2023-01-17T12:15:52.173Z,3.44
2023-01-17T12:18:30.621Z,3.48
2023-01-17T12:21:16.581Z,3.53
2023-01-17T12:24:23.923Z,3.61
2023-01-17T12:26:53.356Z,3.64
2023-01-17T12:29:25.721Z,3.66
2023-01-17T12:32:11.701Z,3.69
2023-01-17T12:34:51.920Z,3.78
2023-01-17T12:37:31.802Z,3.78
2023-01-17T12:40:15.991Z,3.82
2023-01-17T12:42:50.005Z,3.82
2023-01-17T12:45:26.015Z,3.83
2023-01-17T12:48:02.439Z,3.86
2023-01-17T12:50:39.781Z,3.89
2023-01-17T12:53:44.045Z,3.96
2023-01-17T12:56:34.182Z,3.96
2023-01-17T12:59:20.547Z,3.98
2023-01-17T13:01:58.383Z,4.04
2023-01-17T13:04:32.749Z,4.01
2023-01-17T13:07:16.537Z,4.03
2023-01-17T13:09:50.155Z,4.09
2023-01-17T13:12:21.509Z,4.11
2023-01-17T13:14:49.525Z,4.13
2023-01-17T13:17:40.215Z,4.18
2023-01-17T13:20:18.092Z,4.18
2023-01-17T13:22:46.947Z,4.18
2023-01-17T13:25:25.926Z,4.18
2023-01-17T13:28:14.022Z,4.20
2023-01-17T13:31:08.484Z,4.24
2023-01-17T13:33:49.429Z,4.25
2023-01-17T13:36:39.802Z,4.24
2023-01-17T13:39:21.666Z,4.25
2023-01-17T13:41:56.868Z,4.24
2023-01-17T13:44:27.256Z,4.30
2023-01-17T13:46:58.971Z,4.29
2023-01-17T13:49:42.838Z,4.30
2023-01-17T13:52:12.323Z,4.29
2023-01-17T13:54:57.803Z,4.34
2023-01-17T13:57:29.622Z,4.32
2023-01-17T13:59:58.465Z,4.30
2023-01-17T14:02:33.851Z,4.36
2023-01-17T14:05:09.474Z,4.34
2023-01-17T14:07:43.933Z,4.34
2023-01-17T14:10:29.995Z,4.34
2023-01-17T14:12:56.903Z,4.34
2023-01-17T14:15:27.159Z,4.38
2023-01-17T14:18:01.875Z,4.41
2023-01-17T14:20:45.966Z,4.40
2023-01-17T14:23:24.216Z,4.41
2023-01-17T14:25:52.507Z,4.38
2023-01-17T14:28:27.394Z,4.38
2023-01-17T14:30:56.420Z,4.37
2023-01-17T14:33:27.553Z,4.38
2023-01-17T14:36:14.443Z,4.41
2023-01-17T14:38:43.712Z,4.42
2023-01-17T14:41:18.047Z,4.40
2023-01-17T14:43:47.343Z,4.40
2023-01-17T14:46:22.869Z,4.39
2023-01-17T14:48:51.099Z,4.38
2023-01-17T14:51:23.029Z,4.39
2023-01-17T14:53:54.646Z,4.35
2023-01-17T14:56:21.423Z,4.37
2023-01-17T14:58:48.130Z,4.36
2023-01-17T15:01:17.949Z,4.35
2023-01-17T15:03:55.978Z,4.34
2023-01-17T15:06:45.004Z,4.31
2023-01-17T15:09:19.131Z,4.26
2023-01-17T15:11:48.882Z,4.25
2023-01-17T15:14:27.941Z,4.26
2023-01-17T15:16:55.570Z,4.26
2023-01-17T15:19:40.201Z,4.27
2023-01-17T15:22:09.655Z,4.28
2023-01-17T15:24:44.737Z,4.25
2023-01-17T15:27:17.794Z,4.24
2023-01-17T15:29:49.904Z,4.23
2023-01-17T15:32:33.280Z,4.21
2023-01-17T15:35:04.181Z,4.18
2023-01-17T15:37:39.556Z,4.15
2023-01-17T15:40:21.031Z,4.15
2023-01-17T15:42:52.531Z,4.14
2023-01-17T15:45:27.262Z,4.14
2023-01-17T15:47:54.046Z,4.11
2023-01-17T15:50:22.819Z,4.11
2023-01-17T15:52:57.083Z,4.12
2023-01-17T15:55:29.986Z,4.09
2023-01-17T15:57:57.269Z,4.08
2023-01-17T16:00:32.463Z,4.04
2023-01-17T16:02:59.739Z,4.01
2023-01-17T16:05:31.171Z,3.98
2023-01-17T16:08:01.433Z,3.96
2023-01-17T16:10:31.877Z,3.94
2023-01-17T16:12:59.524Z,3.91
2023-01-17T16:15:27.577Z,3.85
2023-01-17T16:18:03.791Z,3.77
2023-01-17T16:20:35.190Z,3.71
2023-01-17T16:23:02.897Z,3.71
2023-01-17T16:25:34.919Z,3.70
2023-01-17T16:28:07.630Z,3.67
2023-01-17T16:30:34.274Z,3.63
2023-01-17T16:33:00.945Z,3.58
2023-01-17T16:35:30.501Z,3.54
2023-01-17T16:37:59.824Z,3.49
2023-01-17T16:40:28.954Z,3.48
2023-01-17T16:42:57.138Z,3.43
2023-01-17T16:45:24.918Z,3.38
2023-01-17T16:47:53.915Z,3.35
2023-01-17T16:50:23.265Z,3.35
2023-01-17T16:52:53.663Z,3.30
2023-01-17T16:55:23.897Z,3.26
2023-01-17T16:57:52.467Z,3.21
2023-01-17T17:00:20.375Z,3.17
2023-01-17T17:02:51.323Z,3.13
2023-01-17T17:05:21.047Z,3.11
2023-01-17T17:07:51.546Z,3.09
2023-01-17T17:10:21.353Z,3.07
2023-01-17T17:12:48.036Z,3.08
2023-01-17T17:15:16.286Z,3.06
2023-01-17T17:17:44.464Z,3.06
2023-01-17T17:20:18.373Z,3.03
2023-01-17T17:22:51.389Z,3.01
2023-01-17T17:25:19.535Z,3.01
2023-01-17T17:27:46.320Z,3.00
2023-01-17T17:30:13.200Z,2.97
2023-01-17T17:32:41.030Z,2.95
2023-01-17T17:35:08.176Z,2.93
2023-01-17T17:37:34.851Z,2.88
2023-01-17T17:40:02.012Z,2.87
2023-01-17T17:42:28.857Z,2.84
2023-01-17T17:44:55.825Z,2.82
2023-01-17T17:47:25.272Z,2.80
2023-01-17T17:49:51.872Z,2.79
2023-01-17T17:52:18.728Z,2.76
2023-01-17T17:54:45.694Z,2.71
2023-01-17T17:57:12.855Z,2.68
2023-01-17T17:59:39.555Z,2.68
2023-01-17T18:02:11.263Z,2.64
2023-01-17T18:04:38.048Z,2.62
2023-01-17T18:07:04.670Z,2.63
2023-01-17T18:09:31.268Z,2.61
2023-01-17T18:11:58.190Z,2.60
2023-01-17T18:14:24.932Z,2.59
2023-01-17T18:16:51.840Z,2.58
2023-01-17T18:19:21.969Z,2.59
2023-01-17T18:21:50.305Z,2.53
2023-01-17T18:24:20.343Z,2.49
2023-01-17T18:26:50.889Z,2.46
2023-01-17T18:29:20.016Z,2.47
2023-01-17T18:31:47.897Z,2.47
2023-01-17T18:34:17.083Z,2.44
2023-01-17T18:36:43.956Z,2.47
2023-01-17T18:39:14.029Z,2.46
2023-01-17T18:41:41.507Z,2.45
2023-01-17T18:44:09.812Z,2.40
2023-01-17T18:46:37.089Z,2.39
2023-01-17T18:49:04.694Z,2.39
2023-01-17T18:51:34.440Z,2.38
2023-01-17T18:54:05.281Z,2.35
2023-01-17T18:56:34.294Z,2.37
2023-01-17T18:59:01.851Z,2.35
2023-01-17T19:01:33.731Z,2.33
2023-01-17T19:04:03.952Z,2.28
2023-01-17T19:06:33.822Z,2.25
2023-01-17T19:09:01.639Z,2.22
2023-01-17T19:11:28.988Z,2.20
2023-01-17T19:13:56.778Z,2.21
2023-01-17T19:16:29.504Z,2.20
2023-01-17T19:18:58.385Z,2.19
2023-01-17T19:21:28.011Z,2.18
2023-01-17T19:23:56.562Z,2.16
2023-01-17T19:26:26.556Z,2.14
2023-01-17T19:28:55.837Z,2.11
2023-01-17T19:31:26.464Z,2.11
2023-01-17T19:33:58.038Z,2.12
2023-01-17T19:36:30.101Z,2.10
2023-01-17T19:39:04.840Z,2.10
2023-01-17T19:41:38.081Z,2.10
2023-01-17T19:44:07.521Z,2.10
2023-01-17T19:46:36.849Z,2.11
2023-01-17T19:49:06.953Z,2.12
2023-01-17T19:51:33.764Z,2.13
2023-01-17T19:54:02.173Z,2.12
2023-01-17T19:56:30.381Z,2.13
2023-01-17T19:59:01.980Z,2.13
2023-01-17T20:01:31.702Z,2.16
2023-01-17T20:03:59.568Z,2.14
2023-01-17T20:06:29.305Z,2.15
2023-01-17T20:08:59.337Z,2.18
2023-01-17T20:11:27.193Z,2.17
2023-01-17T20:13:59.041Z,2.14
2023-01-17T20:16:30.337Z,2.15
2023-01-17T20:19:00.619Z,2.16
2023-01-17T20:21:30.008Z,2.16
2023-01-17T20:23:58.660Z,2.12
2023-01-17T20:26:35.017Z,2.11
2023-01-17T20:29:11.880Z,2.12
2023-01-17T20:31:40.355Z,2.10
2023-01-17T20:34:12.173Z,2.11
2023-01-17T20:36:40.276Z,2.13
2023-01-17T20:39:09.056Z,2.11
2023-01-17T20:41:38.281Z,2.11
2023-01-17T20:44:07.135Z,2.11
2023-01-17T20:46:40.821Z,2.06
2023-01-17T20:49:17.679Z,2.01
2023-01-17T20:51:45.346Z,2.01
2023-01-17T20:54:14.663Z,1.99
2023-01-17T20:56:41.999Z,1.98
2023-01-17T20:59:12.450Z,1.99
2023-01-17T21:01:39.184Z,1.98
2023-01-17T21:04:10.164Z,1.96
2023-01-17T21:06:41.602Z,1.90
2023-01-17T21:09:12.159Z,1.81
2023-01-17T21:11:38.762Z,1.70
2023-01-17T21:14:05.945Z,1.59
2023-01-17T21:16:33.565Z,1.49
2023-01-17T21:19:00.483Z,1.39
2023-01-17T21:21:28.923Z,1.29
2023-01-17T21:23:57.766Z,1.23
2023-01-17T21:26:25.893Z,1.14
2023-01-17T21:28:52.831Z,1.06
2023-01-17T21:31:26.225Z,0.99
2023-01-17T21:34:00.222Z,0.95
2023-01-17T21:36:28.808Z,0.91
2023-01-17T21:38:57.835Z,0.84
2023-01-17T21:41:28.695Z,0.77
2023-01-17T21:43:57.721Z,0.70
2023-01-17T21:46:24.545Z,0.66
2023-01-17T21:48:51.188Z,0.63
2023-01-17T21:51:19.758Z,0.59
2023-01-17T21:53:46.483Z,0.56
2023-01-17T21:56:33.032Z,0.53
2023-01-17T21:59:00.477Z,0.50
2023-01-17T22:01:29.564Z,0.47
2023-01-17T22:03:58.393Z,0.43
2023-01-17T22:06:29.074Z,0.39
2023-01-17T22:08:56.146Z,0.37
2023-01-17T22:11:25.216Z,0.35
2023-01-17T22:13:52.736Z,0.32
2023-01-17T22:16:23.461Z,0.28
2023-01-17T22:18:50.874Z,0.22
2023-01-17T22:21:20.045Z,0.18
2023-01-17T22:23:52.429Z,0.15
2023-01-17T22:26:21.080Z,0.10
2023-01-17T22:28:48.101Z,0.08
2023-01-17T22:31:16.391Z,0.06
2023-01-17T22:33:45.760Z,0.03
2023-01-17T22:36:14.361Z,-0.02
2023-01-17T22:38:42.577Z,-0.06
2023-01-17T22:41:13.108Z,-0.09
2023-01-17T22:43:41.987Z,-0.11
2023-01-17T22:46:10.774Z,-0.13
2023-01-17T22:48:38.385Z,-0.16
2023-01-17T22:51:07.228Z,-0.18
2023-01-17T22:53:33.807Z,-0.23
2023-01-17T22:56:07.213Z,-0.28
2023-01-17T22:58:34.605Z,-0.31
2023-01-17T23:01:12.392Z,-0.33
2023-01-17T23:03:40.905Z,-0.35
2023-01-17T23:06:08.491Z,-0.36
2023-01-17T23:08:35.489Z,-0.39
2023-01-17T23:11:20.671Z,-0.42
2023-01-17T23:13:48.893Z,-0.48
2023-01-17T23:16:34.095Z,-0.50
2023-01-17T23:19:19.416Z,-0.54
2023-01-17T23:22:04.431Z,-0.58
2023-01-17T23:24:31.050Z,-0.62
2023-01-17T23:27:16.493Z,-0.64
2023-01-17T23:29:43.466Z,-0.69
2023-01-17T23:32:10.188Z,-0.70
2023-01-17T23:34:36.768Z,-0.75
2023-01-17T23:37:03.391Z,-0.79
2023-01-17T23:39:29.918Z,-0.80
2023-01-17T23:42:14.747Z,-0.85
2023-01-17T23:44:41.186Z,-0.86
2023-01-17T23:47:07.805Z,-0.87
2023-01-17T23:49:34.414Z,-0.88
2023-01-17T23:52:00.930Z,-0.90
2023-01-17T23:54:27.569Z,-0.88
2023-01-17T23:56:54.037Z,-0.89
2023-01-17T23:59:20.745Z,-0.88
